sensor_id;sensor_type;location;lat;lon;timestamp;P1;durP1;ratioP1;P2;durP2;ratioP2
20348;SDS011;10332;50.208;18.988;2023-04-19T00:02:23;37.25;;;24.15;;
20348;SDS011;10332;50.208;18.988;2023-04-19T00:04:51;35.15;;;24.23;;
20348;SDS011;10332;50.208;18.988;2023-04-19T00:07:19;30.42;;;19.55;;
20348;SDS011;10332;50.208;18.988;2023-04-19T00:09:46;27.15;;;17.65;;
20348;SDS011;10332;50.208;18.988;2023-04-19T00:12:14;31.20;;;20.55;;
20348;SDS011;10332;50.208;18.988;2023-04-19T00:14:41;22.08;;;15.50;;
20348;SDS011;10332;50.208;18.988;2023-04-19T00:17:08;29.50;;;18.55;;
20348;SDS011;10332;50.208;18.988;2023-04-19T00:19:37;25.00;;;16.98;;
20348;SDS011;10332;50.208;18.988;2023-04-19T00:22:04;28.73;;;20.05;;
20348;SDS011;10332;50.208;18.988;2023-04-19T00:24:32;29.10;;;20.52;;
20348;SDS011;10332;50.208;18.988;2023-04-19T00:27:00;34.97;;;23.02;;
20348;SDS011;10332;50.208;18.988;2023-04-19T00:29:27;30.92;;;21.02;;
20348;SDS011;10332;50.208;18.988;2023-04-19T00:31:55;32.50;;;22.02;;
20348;SDS011;10332;50.208;18.988;2023-04-19T00:34:22;32.53;;;20.98;;
20348;SDS011;10332;50.208;18.988;2023-04-19T00:36:50;25.98;;;17.58;;
20348;SDS011;10332;50.208;18.988;2023-04-19T00:39:17;33.20;;;21.40;;
20348;SDS011;10332;50.208;18.988;2023-04-19T00:41:45;30.73;;;20.13;;
20348;SDS011;10332;50.208;18.988;2023-04-19T00:44:12;30.67;;;20.92;;
20348;SDS011;10332;50.208;18.988;2023-04-19T00:46:40;30.35;;;20.83;;
20348;SDS011;10332;50.208;18.988;2023-04-19T00:49:09;34.38;;;23.30;;
20348;SDS011;10332;50.208;18.988;2023-04-19T00:51:37;29.77;;;21.25;;
20348;SDS011;10332;50.208;18.988;2023-04-19T00:54:04;33.22;;;21.92;;
20348;SDS011;10332;50.208;18.988;2023-04-19T00:56:34;32.22;;;21.85;;
20348;SDS011;10332;50.208;18.988;2023-04-19T00:59:01;29.10;;;20.90;;
20348;SDS011;10332;50.208;18.988;2023-04-19T01:01:29;27.85;;;18.55;;
20348;SDS011;10332;50.208;18.988;2023-04-19T01:03:56;25.77;;;17.23;;
20348;SDS011;10332;50.208;18.988;2023-04-19T01:06:24;24.90;;;16.50;;
20348;SDS011;10332;50.208;18.988;2023-04-19T01:08:53;23.55;;;15.88;;
20348;SDS011;10332;50.208;18.988;2023-04-19T01:11:22;20.48;;;14.77;;
20348;SDS011;10332;50.208;18.988;2023-04-19T01:13:50;21.80;;;14.70;;
20348;SDS011;10332;50.208;18.988;2023-04-19T01:16:18;20.40;;;15.07;;
20348;SDS011;10332;50.208;18.988;2023-04-19T01:18:45;20.17;;;14.43;;
20348;SDS011;10332;50.208;18.988;2023-04-19T01:21:13;22.45;;;15.07;;
20348;SDS011;10332;50.208;18.988;2023-04-19T01:23:41;19.02;;;13.32;;
20348;SDS011;10332;50.208;18.988;2023-04-19T01:26:08;21.23;;;14.73;;
20348;SDS011;10332;50.208;18.988;2023-04-19T01:28:36;22.90;;;15.05;;
20348;SDS011;10332;50.208;18.988;2023-04-19T01:31:03;22.00;;;14.68;;
20348;SDS011;10332;50.208;18.988;2023-04-19T01:33:31;21.88;;;15.40;;
20348;SDS011;10332;50.208;18.988;2023-04-19T01:35:58;17.17;;;12.13;;
20348;SDS011;10332;50.208;18.988;2023-04-19T01:38:26;18.33;;;12.98;;
20348;SDS011;10332;50.208;18.988;2023-04-19T01:40:53;18.35;;;13.30;;
20348;SDS011;10332;50.208;18.988;2023-04-19T01:43:22;23.52;;;15.95;;
20348;SDS011;10332;50.208;18.988;2023-04-19T01:45:50;17.00;;;11.82;;
20348;SDS011;10332;50.208;18.988;2023-04-19T01:48:17;18.25;;;13.27;;
20348;SDS011;10332;50.208;18.988;2023-04-19T01:50:45;19.40;;;13.02;;
20348;SDS011;10332;50.208;18.988;2023-04-19T01:53:12;19.63;;;12.90;;
20348;SDS011;10332;50.208;18.988;2023-04-19T01:55:40;17.77;;;13.00;;
20348;SDS011;10332;50.208;18.988;2023-04-19T01:58:08;20.45;;;14.02;;
20348;SDS011;10332;50.208;18.988;2023-04-19T02:00:35;20.08;;;13.80;;
20348;SDS011;10332;50.208;18.988;2023-04-19T02:03:03;20.52;;;15.05;;
20348;SDS011;10332;50.208;18.988;2023-04-19T02:05:30;20.77;;;14.93;;
20348;SDS011;10332;50.208;18.988;2023-04-19T02:07:58;19.60;;;14.52;;
20348;SDS011;10332;50.208;18.988;2023-04-19T02:10:27;22.67;;;15.00;;
20348;SDS011;10332;50.208;18.988;2023-04-19T02:12:54;19.58;;;14.20;;
20348;SDS011;10332;50.208;18.988;2023-04-19T02:15:22;19.75;;;14.48;;
20348;SDS011;10332;50.208;18.988;2023-04-19T02:17:49;22.25;;;14.43;;
20348;SDS011;10332;50.208;18.988;2023-04-19T02:20:17;21.52;;;15.43;;
20348;SDS011;10332;50.208;18.988;2023-04-19T02:22:44;26.35;;;19.05;;
20348;SDS011;10332;50.208;18.988;2023-04-19T02:25:13;22.63;;;16.00;;
20348;SDS011;10332;50.208;18.988;2023-04-19T02:27:42;24.67;;;16.95;;
20348;SDS011;10332;50.208;18.988;2023-04-19T02:30:09;25.17;;;17.35;;
20348;SDS011;10332;50.208;18.988;2023-04-19T02:32:37;21.20;;;14.98;;
20348;SDS011;10332;50.208;18.988;2023-04-19T02:35:05;18.80;;;13.30;;
20348;SDS011;10332;50.208;18.988;2023-04-19T02:37:33;19.23;;;13.25;;
20348;SDS011;10332;50.208;18.988;2023-04-19T02:40:00;17.95;;;12.75;;
20348;SDS011;10332;50.208;18.988;2023-04-19T02:42:27;26.50;;;14.25;;
20348;SDS011;10332;50.208;18.988;2023-04-19T02:44:55;18.15;;;12.13;;
20348;SDS011;10332;50.208;18.988;2023-04-19T02:47:22;19.67;;;14.20;;
20348;SDS011;10332;50.208;18.988;2023-04-19T02:49:50;20.55;;;14.35;;
20348;SDS011;10332;50.208;18.988;2023-04-19T02:52:17;21.60;;;14.07;;
20348;SDS011;10332;50.208;18.988;2023-04-19T02:54:45;20.75;;;14.85;;
20348;SDS011;10332;50.208;18.988;2023-04-19T02:57:12;25.30;;;16.83;;
20348;SDS011;10332;50.208;18.988;2023-04-19T02:59:40;24.70;;;18.23;;
20348;SDS011;10332;50.208;18.988;2023-04-19T03:02:07;20.58;;;15.48;;
20348;SDS011;10332;50.208;18.988;2023-04-19T03:04:34;22.58;;;15.45;;
20348;SDS011;10332;50.208;18.988;2023-04-19T03:07:02;26.35;;;15.98;;
20348;SDS011;10332;50.208;18.988;2023-04-19T03:09:29;26.23;;;16.67;;
20348;SDS011;10332;50.208;18.988;2023-04-19T03:11:56;22.98;;;15.02;;
20348;SDS011;10332;50.208;18.988;2023-04-19T03:14:24;21.77;;;14.18;;
20348;SDS011;10332;50.208;18.988;2023-04-19T03:16:51;16.20;;;12.30;;
20348;SDS011;10332;50.208;18.988;2023-04-19T03:19:19;21.05;;;14.65;;
20348;SDS011;10332;50.208;18.988;2023-04-19T03:21:46;20.75;;;14.20;;
20348;SDS011;10332;50.208;18.988;2023-04-19T03:24:14;23.05;;;15.40;;
20348;SDS011;10332;50.208;18.988;2023-04-19T03:26:41;23.73;;;16.17;;
20348;SDS011;10332;50.208;18.988;2023-04-19T03:29:09;20.75;;;14.93;;
20348;SDS011;10332;50.208;18.988;2023-04-19T03:31:36;23.63;;;16.80;;
20348;SDS011;10332;50.208;18.988;2023-04-19T03:34:04;23.52;;;16.30;;
20348;SDS011;10332;50.208;18.988;2023-04-19T03:36:31;22.35;;;16.80;;
20348;SDS011;10332;50.208;18.988;2023-04-19T03:38:59;24.60;;;16.42;;
20348;SDS011;10332;50.208;18.988;2023-04-19T03:41:28;19.63;;;14.48;;
20348;SDS011;10332;50.208;18.988;2023-04-19T03:43:55;23.45;;;16.63;;
20348;SDS011;10332;50.208;18.988;2023-04-19T03:46:23;25.50;;;16.73;;
20348;SDS011;10332;50.208;18.988;2023-04-19T03:48:51;20.35;;;14.93;;
20348;SDS011;10332;50.208;18.988;2023-04-19T03:51:19;26.42;;;17.40;;
20348;SDS011;10332;50.208;18.988;2023-04-19T03:53:46;25.00;;;17.35;;
20348;SDS011;10332;50.208;18.988;2023-04-19T03:56:14;27.67;;;19.25;;
20348;SDS011;10332;50.208;18.988;2023-04-19T03:58:41;26.50;;;17.33;;
20348;SDS011;10332;50.208;18.988;2023-04-19T04:01:16;27.98;;;18.40;;
20348;SDS011;10332;50.208;18.988;2023-04-19T04:03:47;25.10;;;18.65;;
20348;SDS011;10332;50.208;18.988;2023-04-19T04:06:15;26.73;;;18.80;;
20348;SDS011;10332;50.208;18.988;2023-04-19T04:08:43;24.67;;;15.63;;
20348;SDS011;10332;50.208;18.988;2023-04-19T04:11:10;25.30;;;18.52;;
20348;SDS011;10332;50.208;18.988;2023-04-19T04:13:37;25.83;;;17.83;;
20348;SDS011;10332;50.208;18.988;2023-04-19T04:16:05;26.05;;;18.50;;
20348;SDS011;10332;50.208;18.988;2023-04-19T04:18:33;23.90;;;16.60;;
20348;SDS011;10332;50.208;18.988;2023-04-19T04:21:00;26.40;;;17.85;;
20348;SDS011;10332;50.208;18.988;2023-04-19T04:23:27;25.42;;;16.83;;
20348;SDS011;10332;50.208;18.988;2023-04-19T04:25:56;23.42;;;16.65;;
20348;SDS011;10332;50.208;18.988;2023-04-19T04:28:28;30.13;;;18.67;;
20348;SDS011;10332;50.208;18.988;2023-04-19T04:30:56;23.27;;;17.40;;
20348;SDS011;10332;50.208;18.988;2023-04-19T04:33:26;23.90;;;17.58;;
20348;SDS011;10332;50.208;18.988;2023-04-19T04:35:54;18.73;;;13.90;;
20348;SDS011;10332;50.208;18.988;2023-04-19T04:38:23;25.60;;;17.00;;
20348;SDS011;10332;50.208;18.988;2023-04-19T04:40:51;22.17;;;15.30;;
20348;SDS011;10332;50.208;18.988;2023-04-19T04:43:21;25.42;;;18.92;;
20348;SDS011;10332;50.208;18.988;2023-04-19T04:45:51;27.05;;;19.52;;
20348;SDS011;10332;50.208;18.988;2023-04-19T04:48:22;29.40;;;20.20;;
20348;SDS011;10332;50.208;18.988;2023-04-19T04:50:50;26.40;;;18.98;;
20348;SDS011;10332;50.208;18.988;2023-04-19T04:53:17;29.05;;;21.00;;
20348;SDS011;10332;50.208;18.988;2023-04-19T04:55:45;34.00;;;21.50;;
20348;SDS011;10332;50.208;18.988;2023-04-19T04:58:13;29.90;;;21.02;;
20348;SDS011;10332;50.208;18.988;2023-04-19T05:00:40;26.80;;;19.17;;
20348;SDS011;10332;50.208;18.988;2023-04-19T05:03:08;24.33;;;17.83;;
20348;SDS011;10332;50.208;18.988;2023-04-19T05:05:35;23.73;;;16.08;;
20348;SDS011;10332;50.208;18.988;2023-04-19T05:08:03;26.05;;;19.38;;
20348;SDS011;10332;50.208;18.988;2023-04-19T05:10:30;22.25;;;16.80;;
20348;SDS011;10332;50.208;18.988;2023-04-19T05:12:59;33.85;;;23.30;;
20348;SDS011;10332;50.208;18.988;2023-04-19T05:15:27;32.05;;;23.73;;
20348;SDS011;10332;50.208;18.988;2023-04-19T05:17:54;33.80;;;23.40;;
20348;SDS011;10332;50.208;18.988;2023-04-19T05:20:22;18.85;;;14.45;;
20348;SDS011;10332;50.208;18.988;2023-04-19T05:22:49;20.02;;;14.10;;
20348;SDS011;10332;50.208;18.988;2023-04-19T05:25:16;13.75;;;11.15;;
20348;SDS011;10332;50.208;18.988;2023-04-19T05:27:44;14.88;;;11.27;;
20348;SDS011;10332;50.208;18.988;2023-04-19T05:30:11;20.20;;;15.13;;
20348;SDS011;10332;50.208;18.988;2023-04-19T05:32:39;15.77;;;12.57;;
20348;SDS011;10332;50.208;18.988;2023-04-19T05:35:07;18.65;;;14.43;;
20348;SDS011;10332;50.208;18.988;2023-04-19T05:37:36;17.60;;;13.15;;
20348;SDS011;10332;50.208;18.988;2023-04-19T05:40:04;28.27;;;20.17;;
20348;SDS011;10332;50.208;18.988;2023-04-19T05:42:35;31.10;;;22.25;;
20348;SDS011;10332;50.208;18.988;2023-04-19T05:45:04;20.45;;;15.98;;
20348;SDS011;10332;50.208;18.988;2023-04-19T05:47:33;28.50;;;21.42;;
20348;SDS011;10332;50.208;18.988;2023-04-19T05:50:03;26.05;;;19.25;;
20348;SDS011;10332;50.208;18.988;2023-04-19T05:52:31;17.25;;;14.07;;
20348;SDS011;10332;50.208;18.988;2023-04-19T05:54:59;22.42;;;17.30;;
20348;SDS011;10332;50.208;18.988;2023-04-19T05:57:27;18.48;;;14.15;;
20348;SDS011;10332;50.208;18.988;2023-04-19T05:59:54;20.38;;;15.77;;
20348;SDS011;10332;50.208;18.988;2023-04-19T06:02:22;21.67;;;16.85;;
20348;SDS011;10332;50.208;18.988;2023-04-19T06:04:49;21.17;;;15.98;;
20348;SDS011;10332;50.208;18.988;2023-04-19T06:07:17;18.02;;;13.15;;
20348;SDS011;10332;50.208;18.988;2023-04-19T06:09:59;12.45;;;9.35;;
20348;SDS011;10332;50.208;18.988;2023-04-19T06:12:27;13.02;;;9.85;;
20348;SDS011;10332;50.208;18.988;2023-04-19T06:14:54;12.30;;;9.35;;
20348;SDS011;10332;50.208;18.988;2023-04-19T06:17:22;13.98;;;10.55;;
20348;SDS011;10332;50.208;18.988;2023-04-19T06:19:51;18.50;;;14.98;;
20348;SDS011;10332;50.208;18.988;2023-04-19T06:22:20;14.48;;;11.07;;
20348;SDS011;10332;50.208;18.988;2023-04-19T06:24:47;15.75;;;10.50;;
20348;SDS011;10332;50.208;18.988;2023-04-19T06:27:15;9.18;;;7.00;;
20348;SDS011;10332;50.208;18.988;2023-04-19T06:29:43;10.82;;;7.70;;
20348;SDS011;10332;50.208;18.988;2023-04-19T06:32:10;8.30;;;5.88;;
20348;SDS011;10332;50.208;18.988;2023-04-19T06:34:38;4.90;;;4.05;;
20348;SDS011;10332;50.208;18.988;2023-04-19T06:37:05;4.30;;;3.58;;
20348;SDS011;10332;50.208;18.988;2023-04-19T06:39:32;4.65;;;3.83;;
20348;SDS011;10332;50.208;18.988;2023-04-19T06:42:01;3.78;;;3.35;;
20348;SDS011;10332;50.208;18.988;2023-04-19T06:44:28;2.95;;;2.35;;
20348;SDS011;10332;50.208;18.988;2023-04-19T06:46:56;6.30;;;2.90;;
20348;SDS011;10332;50.208;18.988;2023-04-19T06:49:23;6.85;;;2.75;;
20348;SDS011;10332;50.208;18.988;2023-04-19T06:51:51;3.30;;;2.30;;
20348;SDS011;10332;50.208;18.988;2023-04-19T06:54:18;5.80;;;3.90;;
20348;SDS011;10332;50.208;18.988;2023-04-19T06:56:47;12.57;;;7.68;;
20348;SDS011;10332;50.208;18.988;2023-04-19T06:59:16;6.53;;;4.47;;
20348;SDS011;10332;50.208;18.988;2023-04-19T07:01:46;5.80;;;3.78;;
20348;SDS011;10332;50.208;18.988;2023-04-19T07:04:14;4.50;;;3.10;;
20348;SDS011;10332;50.208;18.988;2023-04-19T07:06:46;4.57;;;3.17;;
20348;SDS011;10332;50.208;18.988;2023-04-19T07:09:17;4.25;;;2.95;;
20348;SDS011;10332;50.208;18.988;2023-04-19T07:11:45;4.45;;;3.20;;
20348;SDS011;10332;50.208;18.988;2023-04-19T07:14:13;4.13;;;3.35;;
20348;SDS011;10332;50.208;18.988;2023-04-19T07:16:41;7.22;;;4.82;;
20348;SDS011;10332;50.208;18.988;2023-04-19T07:19:08;6.78;;;5.82;;
20348;SDS011;10332;50.208;18.988;2023-04-19T07:21:36;5.93;;;4.75;;
20348;SDS011;10332;50.208;18.988;2023-04-19T07:24:07;7.15;;;5.72;;
20348;SDS011;10332;50.208;18.988;2023-04-19T07:26:35;6.07;;;5.00;;
20348;SDS011;10332;50.208;18.988;2023-04-19T07:29:02;6.55;;;5.30;;
20348;SDS011;10332;50.208;18.988;2023-04-19T07:31:30;6.82;;;5.18;;
20348;SDS011;10332;50.208;18.988;2023-04-19T07:33:57;7.13;;;4.20;;
20348;SDS011;10332;50.208;18.988;2023-04-19T07:36:25;5.40;;;4.63;;
20348;SDS011;10332;50.208;18.988;2023-04-19T07:38:53;5.35;;;4.13;;
20348;SDS011;10332;50.208;18.988;2023-04-19T07:41:20;9.15;;;7.00;;
20348;SDS011;10332;50.208;18.988;2023-04-19T07:43:48;10.18;;;6.88;;
20348;SDS011;10332;50.208;18.988;2023-04-19T07:46:15;8.73;;;6.10;;
20348;SDS011;10332;50.208;18.988;2023-04-19T07:48:43;8.80;;;6.78;;
20348;SDS011;10332;50.208;18.988;2023-04-19T07:51:11;8.75;;;6.88;;
20348;SDS011;10332;50.208;18.988;2023-04-19T07:53:42;13.40;;;8.85;;
20348;SDS011;10332;50.208;18.988;2023-04-19T07:56:10;11.13;;;8.15;;
20348;SDS011;10332;50.208;18.988;2023-04-19T07:58:38;7.97;;;5.47;;
20348;SDS011;10332;50.208;18.988;2023-04-19T08:01:07;8.65;;;5.90;;
20348;SDS011;10332;50.208;18.988;2023-04-19T08:03:34;11.93;;;7.95;;
20348;SDS011;10332;50.208;18.988;2023-04-19T08:06:04;10.20;;;8.20;;
20348;SDS011;10332;50.208;18.988;2023-04-19T08:08:35;9.30;;;6.82;;
20348;SDS011;10332;50.208;18.988;2023-04-19T08:11:03;9.02;;;6.35;;
20348;SDS011;10332;50.208;18.988;2023-04-19T08:13:31;8.00;;;6.22;;
20348;SDS011;10332;50.208;18.988;2023-04-19T08:15:59;8.65;;;7.20;;
20348;SDS011;10332;50.208;18.988;2023-04-19T08:18:29;8.20;;;6.90;;
20348;SDS011;10332;50.208;18.988;2023-04-19T08:20:58;17.30;;;13.90;;
20348;SDS011;10332;50.208;18.988;2023-04-19T08:23:26;12.07;;;9.90;;
20348;SDS011;10332;50.208;18.988;2023-04-19T08:26:07;11.02;;;8.55;;
20348;SDS011;10332;50.208;18.988;2023-04-19T08:28:34;11.70;;;9.43;;
20348;SDS011;10332;50.208;18.988;2023-04-19T08:31:04;12.32;;;9.15;;
20348;SDS011;10332;50.208;18.988;2023-04-19T08:33:35;26.23;;;18.23;;
20348;SDS011;10332;50.208;18.988;2023-04-19T08:36:03;8.63;;;7.05;;
20348;SDS011;10332;50.208;18.988;2023-04-19T08:38:31;9.05;;;6.50;;
20348;SDS011;10332;50.208;18.988;2023-04-19T08:40:58;6.82;;;5.70;;
20348;SDS011;10332;50.208;18.988;2023-04-19T08:43:27;7.13;;;4.95;;
20348;SDS011;10332;50.208;18.988;2023-04-19T08:45:59;5.55;;;4.15;;
20348;SDS011;10332;50.208;18.988;2023-04-19T08:48:29;5.28;;;4.57;;
20348;SDS011;10332;50.208;18.988;2023-04-19T08:51:02;5.85;;;4.32;;
20348;SDS011;10332;50.208;18.988;2023-04-19T08:53:34;6.95;;;5.40;;
20348;SDS011;10332;50.208;18.988;2023-04-19T08:56:03;7.00;;;5.85;;
20348;SDS011;10332;50.208;18.988;2023-04-19T08:58:46;5.35;;;3.83;;
20348;SDS011;10332;50.208;18.988;2023-04-19T09:01:33;5.75;;;4.65;;
20348;SDS011;10332;50.208;18.988;2023-04-19T09:04:03;7.03;;;4.47;;
20348;SDS011;10332;50.208;18.988;2023-04-19T09:06:52;7.57;;;5.10;;
20348;SDS011;10332;50.208;18.988;2023-04-19T09:11:54;6.10;;;4.97;;
20348;SDS011;10332;50.208;18.988;2023-04-19T09:14:24;8.85;;;7.22;;
20348;SDS011;10332;50.208;18.988;2023-04-19T09:16:53;8.27;;;6.65;;
20348;SDS011;10332;50.208;18.988;2023-04-19T09:19:44;5.40;;;4.47;;
20348;SDS011;10332;50.208;18.988;2023-04-19T09:22:14;6.07;;;5.03;;
20348;SDS011;10332;50.208;18.988;2023-04-19T09:24:42;7.35;;;5.75;;
20348;SDS011;10332;50.208;18.988;2023-04-19T09:27:17;5.90;;;4.32;;
20348;SDS011;10332;50.208;18.988;2023-04-19T09:30:03;5.75;;;3.95;;
20348;SDS011;10332;50.208;18.988;2023-04-19T09:32:44;4.97;;;4.13;;
20348;SDS011;10332;50.208;18.988;2023-04-19T09:35:14;4.70;;;4.10;;
20348;SDS011;10332;50.208;18.988;2023-04-19T09:37:42;5.80;;;4.25;;
20348;SDS011;10332;50.208;18.988;2023-04-19T09:40:32;7.80;;;4.80;;
20348;SDS011;10332;50.208;18.988;2023-04-19T09:43:00;4.70;;;4.20;;
20348;SDS011;10332;50.208;18.988;2023-04-19T09:45:49;5.18;;;3.75;;
20348;SDS011;10332;50.208;18.988;2023-04-19T09:48:17;4.85;;;4.18;;
20348;SDS011;10332;50.208;18.988;2023-04-19T09:50:49;8.07;;;5.53;;
20348;SDS011;10332;50.208;18.988;2023-04-19T09:53:26;4.32;;;3.90;;
20348;SDS011;10332;50.208;18.988;2023-04-19T09:56:00;5.03;;;3.85;;
20348;SDS011;10332;50.208;18.988;2023-04-19T09:58:30;6.32;;;4.35;;
20348;SDS011;10332;50.208;18.988;2023-04-19T10:01:14;7.63;;;5.70;;
20348;SDS011;10332;50.208;18.988;2023-04-19T10:03:45;9.82;;;6.35;;
20348;SDS011;10332;50.208;18.988;2023-04-19T10:06:17;7.97;;;6.43;;
20348;SDS011;10332;50.208;18.988;2023-04-19T10:08:48;11.05;;;7.57;;
20348;SDS011;10332;50.208;18.988;2023-04-19T10:11:20;18.55;;;13.98;;
20348;SDS011;10332;50.208;18.988;2023-04-19T10:13:48;27.83;;;19.55;;
20348;SDS011;10332;50.208;18.988;2023-04-19T10:16:22;25.67;;;18.98;;
20348;SDS011;10332;50.208;18.988;2023-04-19T10:18:51;15.77;;;12.05;;
20348;SDS011;10332;50.208;18.988;2023-04-19T10:21:20;12.38;;;9.80;;
20348;SDS011;10332;50.208;18.988;2023-04-19T10:23:48;13.48;;;9.88;;
20348;SDS011;10332;50.208;18.988;2023-04-19T10:26:16;10.48;;;8.40;;
20348;SDS011;10332;50.208;18.988;2023-04-19T10:28:43;15.60;;;10.73;;
20348;SDS011;10332;50.208;18.988;2023-04-19T10:31:13;13.35;;;9.68;;
20348;SDS011;10332;50.208;18.988;2023-04-19T10:33:41;12.48;;;9.52;;
20348;SDS011;10332;50.208;18.988;2023-04-19T10:36:08;13.45;;;8.82;;
20348;SDS011;10332;50.208;18.988;2023-04-19T10:38:41;10.93;;;8.55;;
20348;SDS011;10332;50.208;18.988;2023-04-19T10:41:14;12.95;;;8.43;;
20348;SDS011;10332;50.208;18.988;2023-04-19T10:48:58;10.23;;;7.47;;
20348;SDS011;10332;50.208;18.988;2023-04-19T10:51:37;12.00;;;8.88;;
20348;SDS011;10332;50.208;18.988;2023-04-19T10:57:00;13.55;;;8.57;;
20348;SDS011;10332;50.208;18.988;2023-04-19T10:59:31;16.85;;;12.00;;
20348;SDS011;10332;50.208;18.988;2023-04-19T11:02:00;15.75;;;12.30;;
20348;SDS011;10332;50.208;18.988;2023-04-19T11:07:18;13.25;;;9.80;;
20348;SDS011;10332;50.208;18.988;2023-04-19T11:09:49;13.13;;;9.70;;
20348;SDS011;10332;50.208;18.988;2023-04-19T11:12:18;10.93;;;7.88;;
20348;SDS011;10332;50.208;18.988;2023-04-19T11:14:51;13.23;;;10.30;;
20348;SDS011;10332;50.208;18.988;2023-04-19T11:17:27;12.65;;;8.75;;
20348;SDS011;10332;50.208;18.988;2023-04-19T11:19:58;16.45;;;11.60;;
20348;SDS011;10332;50.208;18.988;2023-04-19T11:22:38;18.38;;;14.55;;
20348;SDS011;10332;50.208;18.988;2023-04-19T11:27:45;16.83;;;12.02;;
20348;SDS011;10332;50.208;18.988;2023-04-19T11:30:17;18.33;;;12.20;;
20348;SDS011;10332;50.208;18.988;2023-04-19T11:32:51;22.40;;;14.23;;
20348;SDS011;10332;50.208;18.988;2023-04-19T11:35:22;19.52;;;12.80;;
20348;SDS011;10332;50.208;18.988;2023-04-19T11:37:52;18.40;;;12.13;;
20348;SDS011;10332;50.208;18.988;2023-04-19T11:40:22;19.60;;;13.07;;
20348;SDS011;10332;50.208;18.988;2023-04-19T11:42:55;20.13;;;14.02;;
20348;SDS011;10332;50.208;18.988;2023-04-19T11:45:27;15.80;;;12.27;;
20348;SDS011;10332;50.208;18.988;2023-04-19T11:48:06;19.67;;;14.07;;
20348;SDS011;10332;50.208;18.988;2023-04-19T11:50:44;19.55;;;14.15;;
20348;SDS011;10332;50.208;18.988;2023-04-19T11:53:15;23.80;;;16.42;;
20348;SDS011;10332;50.208;18.988;2023-04-19T11:55:52;23.30;;;15.48;;
20348;SDS011;10332;50.208;18.988;2023-04-19T11:58:31;30.83;;;20.73;;
20348;SDS011;10332;50.208;18.988;2023-04-19T12:01:16;22.05;;;14.82;;
20348;SDS011;10332;50.208;18.988;2023-04-19T12:03:49;30.15;;;17.25;;
20348;SDS011;10332;50.208;18.988;2023-04-19T12:06:27;28.42;;;17.73;;
20348;SDS011;10332;50.208;18.988;2023-04-19T12:08:57;21.88;;;14.68;;
20348;SDS011;10332;50.208;18.988;2023-04-19T12:11:25;36.13;;;23.25;;
20348;SDS011;10332;50.208;18.988;2023-04-19T12:14:16;21.73;;;15.15;;
20348;SDS011;10332;50.208;18.988;2023-04-19T12:19:41;18.67;;;13.98;;
20348;SDS011;10332;50.208;18.988;2023-04-19T12:22:15;21.27;;;14.07;;
20348;SDS011;10332;50.208;18.988;2023-04-19T12:24:50;23.00;;;15.57;;
20348;SDS011;10332;50.208;18.988;2023-04-19T12:27:19;18.67;;;12.55;;
20348;SDS011;10332;50.208;18.988;2023-04-19T12:29:46;19.67;;;13.40;;
20348;SDS011;10332;50.208;18.988;2023-04-19T12:32:14;19.25;;;13.25;;
20348;SDS011;10332;50.208;18.988;2023-04-19T12:34:42;26.08;;;16.67;;
20348;SDS011;10332;50.208;18.988;2023-04-19T12:37:10;26.35;;;17.10;;
20348;SDS011;10332;50.208;18.988;2023-04-19T12:39:37;24.50;;;16.52;;
20348;SDS011;10332;50.208;18.988;2023-04-19T12:42:05;23.27;;;16.20;;
20348;SDS011;10332;50.208;18.988;2023-04-19T12:44:32;22.73;;;14.82;;
20348;SDS011;10332;50.208;18.988;2023-04-19T12:47:00;21.25;;;14.77;;
20348;SDS011;10332;50.208;18.988;2023-04-19T12:49:27;26.63;;;16.05;;
20348;SDS011;10332;50.208;18.988;2023-04-19T12:51:55;22.15;;;14.70;;
20348;SDS011;10332;50.208;18.988;2023-04-19T12:54:23;20.65;;;14.63;;
20348;SDS011;10332;50.208;18.988;2023-04-19T12:56:51;23.02;;;16.05;;
20348;SDS011;10332;50.208;18.988;2023-04-19T12:59:18;23.17;;;16.23;;
20348;SDS011;10332;50.208;18.988;2023-04-19T13:01:48;23.80;;;16.30;;
20348;SDS011;10332;50.208;18.988;2023-04-19T13:04:15;30.65;;;19.25;;
20348;SDS011;10332;50.208;18.988;2023-04-19T13:06:43;33.30;;;22.70;;
20348;SDS011;10332;50.208;18.988;2023-04-19T13:09:11;31.67;;;21.17;;
20348;SDS011;10332;50.208;18.988;2023-04-19T13:11:41;23.10;;;17.08;;
20348;SDS011;10332;50.208;18.988;2023-04-19T13:14:08;28.95;;;18.60;;
20348;SDS011;10332;50.208;18.988;2023-04-19T13:16:36;26.75;;;18.75;;
20348;SDS011;10332;50.208;18.988;2023-04-19T13:19:03;24.15;;;17.27;;
20348;SDS011;10332;50.208;18.988;2023-04-19T13:21:31;25.38;;;17.30;;
20348;SDS011;10332;50.208;18.988;2023-04-19T13:23:58;26.08;;;18.23;;
20348;SDS011;10332;50.208;18.988;2023-04-19T13:26:26;32.92;;;22.70;;
20348;SDS011;10332;50.208;18.988;2023-04-19T13:28:54;45.33;;;31.35;;
20348;SDS011;10332;50.208;18.988;2023-04-19T13:31:22;48.90;;;32.60;;
20348;SDS011;10332;50.208;18.988;2023-04-19T13:33:51;45.42;;;29.10;;
20348;SDS011;10332;50.208;18.988;2023-04-19T13:36:19;40.03;;;26.80;;
20348;SDS011;10332;50.208;18.988;2023-04-19T13:38:47;31.23;;;20.80;;
20348;SDS011;10332;50.208;18.988;2023-04-19T13:41:15;34.92;;;22.10;;
20348;SDS011;10332;50.208;18.988;2023-04-19T13:43:42;28.85;;;19.98;;
20348;SDS011;10332;50.208;18.988;2023-04-19T13:46:11;33.42;;;20.80;;
20348;SDS011;10332;50.208;18.988;2023-04-19T13:48:39;36.00;;;23.60;;
20348;SDS011;10332;50.208;18.988;2023-04-19T13:51:06;26.13;;;18.80;;
20348;SDS011;10332;50.208;18.988;2023-04-19T13:53:34;36.80;;;24.55;;
20348;SDS011;10332;50.208;18.988;2023-04-19T13:56:02;50.45;;;31.88;;
20348;SDS011;10332;50.208;18.988;2023-04-19T13:58:29;43.97;;;27.25;;
20348;SDS011;10332;50.208;18.988;2023-04-19T14:00:57;32.90;;;22.17;;
20348;SDS011;10332;50.208;18.988;2023-04-19T14:03:24;34.17;;;22.52;;
20348;SDS011;10332;50.208;18.988;2023-04-19T14:05:53;35.72;;;23.60;;
20348;SDS011;10332;50.208;18.988;2023-04-19T14:08:20;29.95;;;22.55;;
20348;SDS011;10332;50.208;18.988;2023-04-19T14:10:48;32.40;;;22.17;;
20348;SDS011;10332;50.208;18.988;2023-04-19T14:13:16;28.85;;;20.40;;
20348;SDS011;10332;50.208;18.988;2023-04-19T14:15:44;28.17;;;20.67;;
20348;SDS011;10332;50.208;18.988;2023-04-19T14:18:11;29.67;;;21.20;;
20348;SDS011;10332;50.208;18.988;2023-04-19T14:20:39;34.42;;;24.02;;
20348;SDS011;10332;50.208;18.988;2023-04-19T14:23:06;32.58;;;21.48;;
20348;SDS011;10332;50.208;18.988;2023-04-19T14:25:35;30.70;;;21.58;;
20348;SDS011;10332;50.208;18.988;2023-04-19T14:28:03;29.17;;;20.42;;
20348;SDS011;10332;50.208;18.988;2023-04-19T14:30:31;37.53;;;25.98;;
20348;SDS011;10332;50.208;18.988;2023-04-19T14:32:59;34.25;;;24.75;;
20348;SDS011;10332;50.208;18.988;2023-04-19T14:35:26;34.38;;;23.23;;
20348;SDS011;10332;50.208;18.988;2023-04-19T14:37:54;31.33;;;21.33;;
20348;SDS011;10332;50.208;18.988;2023-04-19T14:40:22;34.75;;;22.45;;
20348;SDS011;10332;50.208;18.988;2023-04-19T14:42:49;31.05;;;21.45;;
20348;SDS011;10332;50.208;18.988;2023-04-19T14:45:17;26.55;;;18.90;;
20348;SDS011;10332;50.208;18.988;2023-04-19T14:47:45;36.58;;;25.20;;